Time;durP1;ratioP1;P1;durP2;ratioP2;P2;SDS_P1;SDS_P2;PMS_P1;PMS_P2;Temp;Humidity;BMP_temperature;BMP_pressure;BME280_temperature;BME280_humidity;BME280_pressure;Samples;Min_cycle;Max_cycle;Signal;HPM_P1;HPM_P2
2024/01/12 00:02:18;;;;;;;47.22;25.67;;;;;;;;;;5091692;28;20031;-67
2024/01/12 00:04:43;;;;;;;46.08;26.48;;;;;;;;;;5091787;28;20420;-67
2024/01/12 00:07:08;;;;;;;49.13;25.80;;;;;;;;;;5092571;28;20024;-67
2024/01/12 00:09:34;;;;;;;49.53;27.90;;;;;;;;;;5082993;28;20028;-67
2024/01/12 00:11:59;;;;;;;48.60;26.00;;;;;;;;;;5091090;28;20462;-67
2024/01/12 00:14:24;;;;;;;45.08;26.67;;;;;;;;;;5091425;28;20032;-67
2024/01/12 00:16:49;;;;;;;47.47;27.25;;;;;;;;;;5092054;28;20054;-67
2024/01/12 00:19:15;;;;;;;55.03;27.60;;;;;;;;;;5090164;28;20043;-67
2024/01/12 00:21:43;;;;;;;50.05;26.98;;;;;;;;;;5092183;28;20103;-67
2024/01/12 00:24:09;;;;;;;46.78;27.55;;;;;;;;;;5091584;28;20470;-67
2024/01/12 00:26:34;;;;;;;46.70;27.63;;;;;;;;;;5091690;28;20078;-67
2024/01/12 00:28:59;;;;;;;45.78;26.05;;;;;;;;;;5089530;28;20070;-67
2024/01/12 00:31:24;;;;;;;52.67;30.08;;;;;;;;;;5090829;28;20065;-67
2024/01/12 00:33:50;;;;;;;57.95;29.35;;;;;;;;;;5092193;28;20023;-67
2024/01/12 00:36:15;;;;;;;66.57;29.05;;;;;;;;;;5092349;28;20020;-67
2024/01/12 00:38:40;;;;;;;60.38;29.63;;;;;;;;;;5091469;28;20028;-67
2024/01/12 00:41:06;;;;;;;59.83;28.70;;;;;;;;;;5090462;28;20089;-67
2024/01/12 00:43:31;;;;;;;56.85;28.80;;;;;;;;;;5091210;28;20031;-67
2024/01/12 00:45:56;;;;;;;54.33;29.15;;;;;;;;;;5091033;28;20043;-67
2024/01/12 00:48:21;;;;;;;58.67;29.17;;;;;;;;;;5082682;28;20032;-67
2024/01/12 00:50:47;;;;;;;65.43;30.30;;;;;;;;;;5086530;28;20031;-67
2024/01/12 00:53:12;;;;;;;58.47;29.70;;;;;;;;;;5071792;28;20024;-67
2024/01/12 00:55:37;;;;;;;58.72;30.83;;;;;;;;;;5042557;28;20843;-67
2024/01/12 00:58:03;;;;;;;66.22;32.05;;;;;;;;;;5042261;28;20771;-67
2024/01/12 01:00:30;;;;;;;63.00;30.05;;;;;;;;;;5041390;28;20245;-67
2024/01/12 01:02:56;;;;;;;64.95;33.50;;;;;;;;;;5036235;28;20016;-67
2024/01/12 01:05:21;;;;;;;59.92;30.92;;;;;;;;;;5042716;28;20070;-67
2024/01/12 01:07:46;;;;;;;76.60;32.00;;;;;;;;;;5044773;28;20028;-67
2024/01/12 01:10:13;;;;;;;74.18;31.63;;;;;;;;;;5044885;28;20924;-67
2024/01/12 01:12:38;;;;;;;67.78;32.00;;;;;;;;;;5043798;28;20076;-67
2024/01/12 01:15:06;;;;;;;72.45;32.90;;;;;;;;;;5042263;28;20044;-66
2024/01/12 01:17:32;;;;;;;73.78;32.10;;;;;;;;;;5043768;28;20027;-66
2024/01/12 01:19:58;;;;;;;76.15;33.22;;;;;;;;;;5041804;28;20028;-66
2024/01/12 01:22:23;;;;;;;73.03;33.90;;;;;;;;;;5057401;28;20028;-66
2024/01/12 01:24:48;;;;;;;67.50;31.85;;;;;;;;;;5089858;28;20150;-66
2024/01/12 01:27:13;;;;;;;82.88;32.60;;;;;;;;;;5085075;28;20467;-67
2024/01/12 01:29:39;;;;;;;80.28;33.83;;;;;;;;;;5090591;28;20031;-67
2024/01/12 01:32:04;;;;;;;77.47;32.63;;;;;;;;;;5089979;28;20044;-66
2024/01/12 01:34:29;;;;;;;72.85;32.28;;;;;;;;;;5079284;28;20026;-66
2024/01/12 01:36:58;;;;;;;71.13;32.08;;;;;;;;;;5088194;28;20048;-66
2024/01/12 01:39:23;;;;;;;73.43;34.10;;;;;;;;;;5090968;28;20372;-67
2024/01/12 01:41:49;;;;;;;78.00;33.63;;;;;;;;;;5089622;28;20039;-66
2024/01/12 01:44:14;;;;;;;81.97;32.30;;;;;;;;;;5090510;28;20414;-66
2024/01/12 01:46:39;;;;;;;88.28;33.28;;;;;;;;;;5090835;28;20095;-66
2024/01/12 01:49:05;;;;;;;88.18;33.78;;;;;;;;;;5090369;28;20347;-66
2024/01/12 01:51:30;;;;;;;85.65;35.88;;;;;;;;;;5091595;28;20027;-66
2024/01/12 01:53:56;;;;;;;83.20;33.80;;;;;;;;;;5093969;28;20488;-66
2024/01/12 01:56:22;;;;;;;75.32;33.22;;;;;;;;;;5094302;28;20107;-66
2024/01/12 01:58:48;;;;;;;83.70;35.45;;;;;;;;;;5094326;28;20020;-66
2024/01/12 02:01:13;;;;;;;104.63;37.70;;;;;;;;;;5089763;28;20454;-66
2024/01/12 02:03:41;;;;;;;81.68;35.17;;;;;;;;;;5094375;28;20106;-66
2024/01/12 02:06:07;;;;;;;82.68;35.65;;;;;;;;;;5092498;28;20039;-66
2024/01/12 02:08:33;;;;;;;86.55;33.80;;;;;;;;;;5094247;28;20161;-65
2024/01/12 02:10:58;;;;;;;84.35;35.53;;;;;;;;;;5093093;28;20020;-65
2024/01/12 02:13:23;;;;;;;81.37;32.90;;;;;;;;;;5094225;28;20049;-66
2024/01/12 02:15:49;;;;;;;84.88;37.70;;;;;;;;;;5093385;28;20289;-66
2024/01/12 02:18:14;;;;;;;79.78;33.88;;;;;;;;;;5094051;28;20474;-65
2024/01/12 02:20:39;;;;;;;86.35;35.63;;;;;;;;;;5093436;28;20024;-65
2024/01/12 02:23:05;;;;;;;85.05;34.30;;;;;;;;;;5093338;28;20024;-65
2024/01/12 02:25:30;;;;;;;91.60;35.80;;;;;;;;;;5093685;28;20058;-65
2024/01/12 02:27:55;;;;;;;82.60;34.92;;;;;;;;;;5094210;28;20099;-65
2024/01/12 02:30:21;;;;;;;88.45;36.85;;;;;;;;;;5093428;28;20044;-65
2024/01/12 02:32:46;;;;;;;85.15;37.05;;;;;;;;;;5091617;28;20019;-65
2024/01/12 02:35:11;;;;;;;84.95;35.95;;;;;;;;;;5093262;28;20549;-65
2024/01/12 02:37:36;;;;;;;90.65;35.65;;;;;;;;;;5092401;28;20020;-65
2024/01/12 02:40:02;;;;;;;90.82;37.58;;;;;;;;;;5093203;28;20110;-65
2024/01/12 02:42:27;;;;;;;94.95;37.28;;;;;;;;;;5093043;28;20032;-65
2024/01/12 02:44:53;;;;;;;105.50;37.05;;;;;;;;;;5093079;28;20020;-65
2024/01/12 02:47:18;;;;;;;96.43;35.22;;;;;;;;;;5083724;28;20414;-65
2024/01/12 02:49:43;;;;;;;106.38;37.88;;;;;;;;;;5085919;28;20425;-65
2024/01/12 02:52:08;;;;;;;87.78;37.72;;;;;;;;;;5092102;28;20024;-65
2024/01/12 02:54:34;;;;;;;101.75;37.55;;;;;;;;;;5093180;28;20027;-65
2024/01/12 02:56:59;;;;;;;107.43;38.57;;;;;;;;;;5093099;28;20028;-65
2024/01/12 02:59:24;;;;;;;111.03;37.75;;;;;;;;;;5092287;28;20679;-65
2024/01/12 03:01:49;;;;;;;100.43;37.33;;;;;;;;;;5092693;28;20397;-65
2024/01/12 03:04:15;;;;;;;111.97;37.75;;;;;;;;;;5091458;28;20106;-65
2024/01/12 03:06:40;;;;;;;104.78;38.30;;;;;;;;;;5092349;28;20024;-65
2024/01/12 03:09:05;;;;;;;98.22;39.65;;;;;;;;;;5091818;28;20026;-65
2024/01/12 03:11:30;;;;;;;92.07;36.42;;;;;;;;;;5092853;28;20024;-65
2024/01/12 03:13:55;;;;;;;105.47;37.22;;;;;;;;;;5092874;28;20500;-65
2024/01/12 03:16:21;;;;;;;105.95;37.20;;;;;;;;;;5048885;28;20040;-65
2024/01/12 03:18:46;;;;;;;96.82;36.92;;;;;;;;;;5045329;28;20032;-65
2024/01/12 03:21:12;;;;;;;104.22;38.17;;;;;;;;;;5091894;28;20027;-65
2024/01/12 03:23:37;;;;;;;101.50;38.00;;;;;;;;;;5092590;28;20031;-65
2024/01/12 03:26:03;;;;;;;106.30;39.83;;;;;;;;;;5086358;28;20027;-65
2024/01/12 03:28:28;;;;;;;114.40;36.92;;;;;;;;;;5087917;28;20032;-65
2024/01/12 03:30:53;;;;;;;106.93;38.65;;;;;;;;;;5092667;28;20114;-65
2024/01/12 03:33:18;;;;;;;112.53;39.22;;;;;;;;;;5092392;28;20103;-66
2024/01/12 03:35:44;;;;;;;114.35;39.90;;;;;;;;;;5091802;28;20107;-65
2024/01/12 03:38:11;;;;;;;110.05;39.70;;;;;;;;;;5092397;28;20118;-66
2024/01/12 03:40:36;;;;;;;101.38;36.97;;;;;;;;;;5079678;28;20034;-66
2024/01/12 03:43:01;;;;;;;119.53;38.30;;;;;;;;;;5091966;28;20023;-66
2024/01/12 03:45:27;;;;;;;106.32;34.10;;;;;;;;;;5091810;28;20016;-67
2024/01/12 03:47:52;;;;;;;86.78;32.88;;;;;;;;;;5091725;28;20035;-65
2024/01/12 03:50:17;;;;;;;95.63;36.45;;;;;;;;;;5091505;28;20020;-65
2024/01/12 03:52:42;;;;;;;96.93;37.20;;;;;;;;;;5091375;28;20031;-65
2024/01/12 03:55:07;;;;;;;102.53;37.10;;;;;;;;;;5090954;28;20020;-65
2024/01/12 03:57:33;;;;;;;110.10;37.25;;;;;;;;;;5092218;28;20024;-65
2024/01/12 03:59:58;;;;;;;102.93;37.75;;;;;;;;;;5092032;28;20039;-65
2024/01/12 04:02:23;;;;;;;117.30;36.85;;;;;;;;;;5088133;28;20024;-65
2024/01/12 04:04:48;;;;;;;95.60;36.50;;;;;;;;;;5091880;28;20016;-65
2024/01/12 04:07:13;;;;;;;105.10;35.60;;;;;;;;;;5091536;28;20280;-65
2024/01/12 04:09:39;;;;;;;113.45;39.50;;;;;;;;;;5091011;28;20042;-66
2024/01/12 04:12:04;;;;;;;111.75;36.95;;;;;;;;;;5091969;28;20085;-66
2024/01/12 04:14:29;;;;;;;112.55;38.45;;;;;;;;;;5091329;28;20020;-65
2024/01/12 04:16:55;;;;;;;100.25;35.55;;;;;;;;;;5090982;28;20041;-65
2024/01/12 04:19:20;;;;;;;110.97;34.67;;;;;;;;;;5091402;28;20045;-66
2024/01/12 04:21:45;;;;;;;106.13;35.63;;;;;;;;;;5090546;28;20069;-65
2024/01/12 04:24:11;;;;;;;112.13;37.60;;;;;;;;;;5091895;28;20032;-66
2024/01/12 04:26:36;;;;;;;112.22;38.35;;;;;;;;;;5091199;28;20024;-65
2024/01/12 04:29:01;;;;;;;118.43;38.92;;;;;;;;;;5088116;28;20354;-65
2024/01/12 04:31:27;;;;;;;98.25;35.97;;;;;;;;;;5090931;28;20020;-66
2024/01/12 04:33:52;;;;;;;100.72;36.50;;;;;;;;;;5088893;28;20142;-65
2024/01/12 04:36:20;;;;;;;100.43;34.87;;;;;;;;;;5091069;28;20048;-65
2024/01/12 04:38:45;;;;;;;108.35;37.17;;;;;;;;;;5077831;28;20644;-65
2024/01/12 04:41:10;;;;;;;111.07;37.33;;;;;;;;;;5092409;28;20020;-65
2024/01/12 04:43:35;;;;;;;107.18;37.13;;;;;;;;;;5091680;28;20035;-65
2024/01/12 04:46:01;;;;;;;99.28;37.38;;;;;;;;;;5081707;28;20008;-66
2024/01/12 04:48:26;;;;;;;109.10;39.17;;;;;;;;;;5087603;28;20032;-66
2024/01/12 04:50:51;;;;;;;112.63;36.13;;;;;;;;;;5091079;28;20523;-65
2024/01/12 04:53:16;;;;;;;120.35;36.47;;;;;;;;;;5093279;28;20517;-66
2024/01/12 04:55:41;;;;;;;112.72;36.25;;;;;;;;;;5091202;28;20154;-65
2024/01/12 04:58:07;;;;;;;96.57;34.08;;;;;;;;;;5090786;28;20035;-65
2024/01/12 05:00:32;;;;;;;119.93;36.85;;;;;;;;;;5090685;28;20486;-65
2024/01/12 05:02:57;;;;;;;110.50;35.20;;;;;;;;;;5091275;28;20420;-65
2024/01/12 05:05:23;;;;;;;117.53;36.30;;;;;;;;;;5091546;28;20796;-65
2024/01/12 05:07:48;;;;;;;119.72;37.90;;;;;;;;;;5090748;28;20062;-66
2024/01/12 05:10:13;;;;;;;101.85;37.38;;;;;;;;;;5091030;28;20363;-66
2024/01/12 05:12:38;;;;;;;114.22;35.72;;;;;;;;;;5091001;28;20028;-65
2024/01/12 05:15:04;;;;;;;120.63;36.57;;;;;;;;;;5091643;28;20012;-67
2024/01/12 05:17:29;;;;;;;109.60;38.38;;;;;;;;;;5089678;28;20281;-66
2024/01/12 05:19:54;;;;;;;114.05;35.95;;;;;;;;;;5091101;28;20036;-65
2024/01/12 05:22:20;;;;;;;126.38;39.40;;;;;;;;;;5088257;28;20046;-65
2024/01/12 05:24:45;;;;;;;119.70;39.88;;;;;;;;;;5090561;28;20394;-64
2024/01/12 05:27:10;;;;;;;122.25;38.28;;;;;;;;;;5092999;28;20035;-64
2024/01/12 05:29:35;;;;;;;114.53;38.45;;;;;;;;;;5094531;28;20016;-64
2024/01/12 05:32:01;;;;;;;133.95;37.45;;;;;;;;;;5094377;28;20367;-64
2024/01/12 05:34:26;;;;;;;111.80;38.63;;;;;;;;;;5087733;28;20039;-65
2024/01/12 05:36:51;;;;;;;119.50;37.47;;;;;;;;;;5045330;28;20024;-64
2024/01/12 05:39:17;;;;;;;115.55;36.78;;;;;;;;;;5045434;28;20085;-65
2024/01/12 05:41:42;;;;;;;100.10;36.05;;;;;;;;;;5046962;28;20020;-65
2024/01/12 05:44:07;;;;;;;113.90;36.28;;;;;;;;;;5047053;28;20844;-65
2024/01/12 05:46:33;;;;;;;111.20;35.75;;;;;;;;;;5092878;28;20495;-65
2024/01/12 05:49:00;;;;;;;98.30;37.22;;;;;;;;;;5092813;28;20035;-64
2024/01/12 05:51:26;;;;;;;126.35;38.08;;;;;;;;;;5091424;28;20028;-64
2024/01/12 05:53:51;;;;;;;125.07;38.90;;;;;;;;;;5092528;28;20026;-64
2024/01/12 05:56:16;;;;;;;93.20;35.30;;;;;;;;;;5092004;28;20496;-64
2024/01/12 05:58:41;;;;;;;104.68;37.55;;;;;;;;;;5093227;28;20351;-64
2024/01/12 06:01:07;;;;;;;105.00;35.60;;;;;;;;;;5093236;28;20028;-64
2024/01/12 06:03:32;;;;;;;92.28;36.67;;;;;;;;;;5093882;28;20119;-65
2024/01/12 06:05:57;;;;;;;111.33;35.67;;;;;;;;;;5093681;28;20470;-65
2024/01/12 06:08:23;;;;;;;112.85;37.30;;;;;;;;;;5093856;28;20266;-66
2024/01/12 06:10:48;;;;;;;106.07;35.03;;;;;;;;;;5092447;28;20069;-65
2024/01/12 06:13:14;;;;;;;115.47;38.20;;;;;;;;;;5093364;28;20077;-65
2024/01/12 06:15:39;;;;;;;107.10;38.25;;;;;;;;;;5094085;28;20043;-65
2024/01/12 06:18:04;;;;;;;96.28;34.60;;;;;;;;;;5092189;28;20024;-65
2024/01/12 06:20:30;;;;;;;116.75;38.33;;;;;;;;;;5093063;28;20024;-65
2024/01/12 06:22:55;;;;;;;117.68;37.45;;;;;;;;;;5091931;28;20051;-65
2024/01/12 06:25:20;;;;;;;121.10;42.28;;;;;;;;;;5093137;28;20031;-66
2024/01/12 06:27:46;;;;;;;110.90;38.00;;;;;;;;;;5094307;28;20020;-65
2024/01/12 06:30:11;;;;;;;133.90;40.28;;;;;;;;;;5093852;28;20024;-65
2024/01/12 06:32:37;;;;;;;114.38;39.55;;;;;;;;;;5093238;28;20027;-65
2024/01/12 06:35:03;;;;;;;93.03;35.33;;;;;;;;;;5086350;28;20027;-65
2024/01/12 06:37:28;;;;;;;120.05;38.83;;;;;;;;;;5089430;28;20027;-65
2024/01/12 06:39:55;;;;;;;93.05;36.63;;;;;;;;;;5092970;28;20015;-66
2024/01/12 06:42:20;;;;;;;106.63;36.67;;;;;;;;;;5093789;28;20101;-65
2024/01/12 06:44:45;;;;;;;105.00;37.70;;;;;;;;;;5094009;28;20411;-65
2024/01/12 06:47:11;;;;;;;113.28;37.75;;;;;;;;;;5092639;28;20073;-65
2024/01/12 06:49:36;;;;;;;112.10;39.00;;;;;;;;;;5093309;28;20481;-65
2024/01/12 06:52:01;;;;;;;114.95;39.78;;;;;;;;;;5093142;28;20069;-65
2024/01/12 06:54:27;;;;;;;95.97;38.47;;;;;;;;;;5093059;28;20066;-65
2024/01/12 06:56:56;;;;;;;93.95;36.80;;;;;;;;;;5092229;28;20066;-64
2024/01/12 06:59:21;;;;;;;108.93;39.88;;;;;;;;;;5088310;28;20031;-64
2024/01/12 07:01:46;;;;;;;93.07;37.17;;;;;;;;;;5093084;28;20073;-64
2024/01/12 07:04:11;;;;;;;96.00;37.47;;;;;;;;;;5092816;28;20519;-64
2024/01/12 07:06:37;;;;;;;112.65;40.72;;;;;;;;;;5092339;28;20020;-64
2024/01/12 07:09:02;;;;;;;96.82;40.65;;;;;;;;;;5093121;28;20474;-64
2024/01/12 07:11:27;;;;;;;109.07;39.45;;;;;;;;;;5091845;28;20016;-64
2024/01/12 07:13:53;;;;;;;95.28;36.33;;;;;;;;;;5093312;28;20016;-64
2024/01/12 07:16:18;;;;;;;105.22;39.58;;;;;;;;;;5092068;28;20024;-64
2024/01/12 07:18:43;;;;;;;102.55;40.00;;;;;;;;;;5092706;28;20028;-64
2024/01/12 07:21:08;;;;;;;90.88;38.75;;;;;;;;;;5092033;28;20538;-64
2024/01/12 07:23:34;;;;;;;94.07;37.00;;;;;;;;;;5092273;28;20019;-65
2024/01/12 07:26:00;;;;;;;88.40;35.22;;;;;;;;;;5092638;28;20023;-65
2024/01/12 07:28:25;;;;;;;99.75;36.83;;;;;;;;;;5092092;28;20364;-65
2024/01/12 07:30:54;;;;;;;91.45;38.63;;;;;;;;;;5092506;28;20035;-65
2024/01/12 07:33:20;;;;;;;86.03;37.40;;;;;;;;;;5088325;28;20016;-65
2024/01/12 07:35:45;;;;;;;106.43;36.72;;;;;;;;;;5093346;28;20389;-65
2024/01/12 07:38:10;;;;;;;94.25;35.97;;;;;;;;;;5091110;28;20435;-65
2024/01/12 07:40:36;;;;;;;99.30;39.65;;;;;;;;;;5091952;28;20034;-64
2024/01/12 07:43:01;;;;;;;94.25;37.90;;;;;;;;;;5092321;28;20062;-64
2024/01/12 07:45:26;;;;;;;111.53;39.70;;;;;;;;;;5091962;28;20047;-64
2024/01/12 07:47:52;;;;;;;98.38;37.22;;;;;;;;;;5090109;28;20036;-64
2024/01/12 07:50:17;;;;;;;92.93;37.40;;;;;;;;;;5088750;28;20038;-63
2024/01/12 07:52:42;;;;;;;107.78;38.58;;;;;;;;;;5073958;28;20016;-64
2024/01/12 07:55:08;;;;;;;106.82;37.60;;;;;;;;;;5077765;28;20123;-63
2024/01/12 07:57:33;;;;;;;94.43;36.55;;;;;;;;;;5091777;28;20036;-64
2024/01/12 07:59:58;;;;;;;84.28;35.05;;;;;;;;;;5091007;28;20032;-63
2024/01/12 08:02:23;;;;;;;81.43;34.67;;;;;;;;;;5092014;28;20080;-63
2024/01/12 08:04:49;;;;;;;94.63;36.90;;;;;;;;;;5089847;28;20027;-63
2024/01/12 08:07:14;;;;;;;94.10;36.03;;;;;;;;;;5088550;28;20024;-63
2024/01/12 08:09:39;;;;;;;89.22;34.65;;;;;;;;;;5091772;28;20378;-64
2024/01/12 08:12:07;;;;;;;95.07;36.90;;;;;;;;;;5081513;28;20082;-64
2024/01/12 08:14:32;;;;;;;91.20;36.40;;;;;;;;;;5085996;28;20059;-63
2024/01/12 08:16:57;;;;;;;100.22;37.00;;;;;;;;;;5086708;28;20039;-63
2024/01/12 08:19:22;;;;;;;97.13;35.95;;;;;;;;;;5091123;28;20028;-63
2024/01/12 08:21:48;;;;;;;86.78;36.67;;;;;;;;;;5091370;28;20026;-63
2024/01/12 08:24:13;;;;;;;90.15;34.63;;;;;;;;;;5091845;28;20112;-63
2024/01/12 08:26:38;;;;;;;88.40;33.83;;;;;;;;;;5091395;28;20052;-63
2024/01/12 08:29:03;;;;;;;77.90;34.63;;;;;;;;;;5091053;28;20055;-64
2024/01/12 08:31:28;;;;;;;83.55;33.35;;;;;;;;;;5090321;28;20062;-63
2024/01/12 08:33:54;;;;;;;75.93;32.22;;;;;;;;;;5090576;28;20043;-63
2024/01/12 08:36:19;;;;;;;88.25;33.00;;;;;;;;;;5090872;28;20471;-65
2024/01/12 08:38:44;;;;;;;74.18;32.85;;;;;;;;;;5091221;28;20035;-65
2024/01/12 08:41:09;;;;;;;83.10;33.72;;;;;;;;;;5091057;28;20073;-65
2024/01/12 08:43:35;;;;;;;74.55;31.92;;;;;;;;;;5069975;28;20028;-64
2024/01/12 08:46:00;;;;;;;86.18;35.05;;;;;;;;;;5085429;28;20554;-67
2024/01/12 08:48:25;;;;;;;88.67;36.80;;;;;;;;;;5089826;28;20031;-63
2024/01/12 08:50:50;;;;;;;90.07;33.70;;;;;;;;;;5091518;28;20266;-65
2024/01/12 08:53:16;;;;;;;85.57;33.00;;;;;;;;;;5091073;28;20027;-63
2024/01/12 08:55:41;;;;;;;83.82;33.45;;;;;;;;;;5080017;28;20191;-64
2024/01/12 08:58:06;;;;;;;86.25;32.85;;;;;;;;;;5090987;28;20060;-65
2024/01/12 09:00:32;;;;;;;66.25;29.98;;;;;;;;;;5090399;28;20027;-65
2024/01/12 09:02:57;;;;;;;69.00;29.38;;;;;;;;;;5089840;28;20012;-64
2024/01/12 09:05:22;;;;;;;62.08;26.95;;;;;;;;;;5094707;28;20423;-64
2024/01/12 09:07:48;;;;;;;54.67;22.27;;;;;;;;;;5094688;28;20043;-65
2024/01/12 09:10:13;;;;;;;47.03;22.08;;;;;;;;;;5094520;28;20024;-64
2024/01/12 09:12:38;;;;;;;53.97;21.85;;;;;;;;;;5094085;28;20394;-65
2024/01/12 09:15:07;;;;;;;57.28;22.92;;;;;;;;;;5094498;28;20032;-64
2024/01/12 09:17:33;;;;;;;45.95;21.80;;;;;;;;;;5093751;28;20552;-64
2024/01/12 09:19:58;;;;;;;53.92;21.92;;;;;;;;;;5094060;28;20063;-64
2024/01/12 09:22:23;;;;;;;55.50;24.67;;;;;;;;;;5092913;28;20024;-65
2024/01/12 09:24:48;;;;;;;54.38;23.23;;;;;;;;;;5094410;28;20023;-65
2024/01/12 09:27:14;;;;;;;55.03;23.50;;;;;;;;;;5093935;28;20046;-65
2024/01/12 09:29:39;;;;;;;51.50;20.83;;;;;;;;;;5085432;28;20024;-65
2024/01/12 09:32:05;;;;;;;56.83;23.10;;;;;;;;;;5092566;28;20462;-65
2024/01/12 09:34:31;;;;;;;48.97;23.52;;;;;;;;;;5091335;28;20089;-64
2024/01/12 09:36:56;;;;;;;54.95;23.23;;;;;;;;;;5068246;28;20944;-65
2024/01/12 09:39:21;;;;;;;53.10;24.40;;;;;;;;;;5065187;28;20938;-65
2024/01/12 09:41:47;;;;;;;56.15;21.65;;;;;;;;;;5042359;28;20824;-64
2024/01/12 09:44:17;;;;;;;63.45;24.70;;;;;;;;;;5085403;28;20103;-65
2024/01/12 09:46:52;;;;;;;61.58;25.77;;;;;;;;;;5086839;28;20036;-65
2024/01/12 09:49:18;;;;;;;53.90;25.10;;;;;;;;;;5082707;28;20090;-65
2024/01/12 09:51:43;;;;;;;58.42;24.23;;;;;;;;;;5080659;28;20891;-65
2024/01/12 09:54:08;;;;;;;57.65;22.80;;;;;;;;;;5093232;28;20016;-64
2024/01/12 09:56:33;;;;;;;46.47;25.25;;;;;;;;;;5093528;28;20016;-66
2024/01/12 09:58:59;;;;;;;48.33;24.35;;;;;;;;;;5092474;28;20420;-64
2024/01/12 10:01:24;;;;;;;44.67;19.33;;;;;;;;;;5083165;28;20386;-64
2024/01/12 10:03:50;;;;;;;55.42;23.20;;;;;;;;;;5080632;28;20020;-64
2024/01/12 10:06:15;;;;;;;45.70;24.08;;;;;;;;;;5086420;28;20063;-64
2024/01/12 10:08:40;;;;;;;49.35;21.38;;;;;;;;;;5092329;28;20069;-64
2024/01/12 10:11:06;;;;;;;52.20;24.08;;;;;;;;;;5092642;28;20024;-64
2024/01/12 10:13:31;;;;;;;43.15;22.27;;;;;;;;;;5093284;28;20481;-64
2024/01/12 10:15:56;;;;;;;44.47;21.15;;;;;;;;;;5093085;28;20058;-65
2024/01/12 10:18:22;;;;;;;46.50;21.45;;;;;;;;;;5092255;28;20131;-65
2024/01/12 10:20:48;;;;;;;44.35;20.55;;;;;;;;;;5091082;28;20020;-65
2024/01/12 10:23:21;;;;;;;46.70;21.77;;;;;;;;;;5075078;28;20055;-64
2024/01/12 10:25:59;;;;;;;40.50;21.02;;;;;;;;;;5088859;28;20546;-64
2024/01/12 10:28:27;;;;;;;42.00;19.70;;;;;;;;;;5081754;28;20025;-64
2024/01/12 10:30:52;;;;;;;47.20;21.88;;;;;;;;;;5091508;28;20389;-64
2024/01/12 10:33:18;;;;;;;36.95;17.88;;;;;;;;;;5089312;28;20020;-64
2024/01/12 10:35:47;;;;;;;41.40;19.42;;;;;;;;;;5091839;28;20111;-64
2024/01/12 10:38:13;;;;;;;37.30;17.70;;;;;;;;;;5081643;28;20625;-64
2024/01/12 10:40:39;;;;;;;37.45;17.58;;;;;;;;;;5077798;28;20036;-64
2024/01/12 10:43:07;;;;;;;32.88;16.80;;;;;;;;;;5076902;28;20888;-64
2024/01/12 10:45:33;;;;;;;35.47;17.42;;;;;;;;;;5072188;28;20021;-64
2024/01/12 10:48:05;;;;;;;31.13;17.10;;;;;;;;;;5075476;28;21020;-65
2024/01/12 10:50:36;;;;;;;34.05;15.50;;;;;;;;;;5061549;28;20032;-64
2024/01/12 10:53:09;;;;;;;38.75;17.77;;;;;;;;;;5080374;28;20020;-64
2024/01/12 10:55:37;;;;;;;30.92;14.65;;;;;;;;;;5092090;28;20012;-64
2024/01/12 10:58:02;;;;;;;38.92;15.75;;;;;;;;;;5092020;28;20375;-64
2024/01/12 11:00:29;;;;;;;38.75;16.40;;;;;;;;;;5091238;28;20028;-64
2024/01/12 11:02:54;;;;;;;36.65;16.48;;;;;;;;;;5092053;28;20035;-64
2024/01/12 11:05:21;;;;;;;39.35;15.50;;;;;;;;;;5072715;28;20028;-64
2024/01/12 11:07:47;;;;;;;25.40;13.20;;;;;;;;;;5092402;28;20036;-64
2024/01/12 11:10:13;;;;;;;28.27;14.65;;;;;;;;;;5092084;28;20085;-64
2024/01/12 11:12:40;;;;;;;33.85;14.32;;;;;;;;;;5092727;28;20028;-64
2024/01/12 11:15:05;;;;;;;30.17;15.23;;;;;;;;;;5092393;28;20040;-65
2024/01/12 11:17:33;;;;;;;33.10;14.60;;;;;;;;;;5091818;28;20475;-65
2024/01/12 11:20:11;;;;;;;32.67;14.73;;;;;;;;;;5091989;28;20024;-64
2024/01/12 11:22:38;;;;;;;28.52;13.82;;;;;;;;;;5091941;28;20027;-64
2024/01/12 11:25:03;;;;;;;25.65;13.07;;;;;;;;;;5090387;28;20027;-64
2024/01/12 11:27:37;;;;;;;28.15;13.23;;;;;;;;;;5073345;28;20036;-64
2024/01/12 11:30:03;;;;;;;33.63;15.02;;;;;;;;;;5091921;28;20116;-64
2024/01/12 11:32:28;;;;;;;23.02;13.55;;;;;;;;;;5092291;28;20357;-64
2024/01/12 11:35:08;;;;;;;23.52;13.20;;;;;;;;;;5092560;28;20020;-64
2024/01/12 11:37:33;;;;;;;28.40;13.95;;;;;;;;;;5092078;28;20027;-64
2024/01/12 11:40:04;;;;;;;27.85;14.43;;;;;;;;;;5091557;28;20036;-64
2024/01/12 11:42:29;;;;;;;25.33;12.50;;;;;;;;;;5079094;28;20032;-64
2024/01/12 11:44:54;;;;;;;31.52;13.48;;;;;;;;;;5078669;28;20035;-65
2024/01/12 11:47:20;;;;;;;24.05;11.95;;;;;;;;;;5089647;28;20115;-64
2024/01/12 11:49:45;;;;;;;28.00;12.63;;;;;;;;;;5091294;28;20103;-63
2024/01/12 11:52:10;;;;;;;24.10;12.60;;;;;;;;;;5079112;28;20051;-64
2024/01/12 11:54:37;;;;;;;27.45;12.30;;;;;;;;;;5091502;28;20024;-65
2024/01/12 11:57:02;;;;;;;25.05;12.82;;;;;;;;;;5089039;28;20024;-64
2024/01/12 11:59:28;;;;;;;22.98;11.30;;;;;;;;;;5091797;28;20034;-65
2024/01/12 12:01:53;;;;;;;21.42;11.38;;;;;;;;;;5091407;28;20028;-65
2024/01/12 12:04:18;;;;;;;21.90;11.73;;;;;;;;;;5088124;28;20775;-65
2024/01/12 12:06:47;;;;;;;23.88;11.70;;;;;;;;;;5091081;28;20020;-64
2024/01/12 12:09:12;;;;;;;25.25;12.35;;;;;;;;;;5091447;28;20089;-66
2024/01/12 12:11:38;;;;;;;23.65;11.18;;;;;;;;;;5078780;28;20428;-65
2024/01/12 12:14:03;;;;;;;17.35;11.55;;;;;;;;;;5092160;28;20046;-65
2024/01/12 12:16:28;;;;;;;23.45;11.63;;;;;;;;;;5091598;28;20020;-66
2024/01/12 12:18:54;;;;;;;21.58;11.38;;;;;;;;;;5092094;28;20047;-65
2024/01/12 12:21:19;;;;;;;26.15;12.50;;;;;;;;;;5091163;28;20508;-65
2024/01/12 12:23:44;;;;;;;24.08;11.85;;;;;;;;;;5073827;28;20023;-65
2024/01/12 12:26:10;;;;;;;28.38;13.30;;;;;;;;;;5079007;28;20074;-65
2024/01/12 12:28:35;;;;;;;18.58;11.82;;;;;;;;;;5070620;28;20039;-65
2024/01/12 12:31:01;;;;;;;20.25;10.77;;;;;;;;;;5090774;28;20031;-64
2024/01/12 12:33:27;;;;;;;20.38;11.55;;;;;;;;;;5090730;28;20070;-63
2024/01/12 12:36:06;;;;;;;21.58;10.65;;;;;;;;;;5076981;28;20103;-63
2024/01/12 12:38:31;;;;;;;24.67;11.60;;;;;;;;;;5091125;28;20038;-63
2024/01/12 12:40:58;;;;;;;21.88;13.23;;;;;;;;;;5089943;28;20035;-63
2024/01/12 12:43:23;;;;;;;24.02;13.25;;;;;;;;;;5091262;28;20157;-63
2024/01/12 12:45:52;;;;;;;20.15;11.43;;;;;;;;;;5090943;28;20099;-63
2024/01/12 12:48:17;;;;;;;25.45;11.60;;;;;;;;;;5090486;28;20024;-63
2024/01/12 12:50:42;;;;;;;21.30;11.88;;;;;;;;;;5090684;28;20103;-63
2024/01/12 12:53:10;;;;;;;22.70;11.70;;;;;;;;;;5089014;28;20111;-63
2024/01/12 12:55:35;;;;;;;30.73;12.00;;;;;;;;;;5090295;28;20028;-63
2024/01/12 12:58:00;;;;;;;21.70;11.55;;;;;;;;;;5089345;28;20035;-63
2024/01/12 13:00:26;;;;;;;20.10;11.43;;;;;;;;;;5090596;28;20201;-63
2024/01/12 13:02:51;;;;;;;26.42;12.07;;;;;;;;;;5090461;28;20114;-64
2024/01/12 13:05:18;;;;;;;21.27;11.48;;;;;;;;;;5090836;28;20024;-64
2024/01/12 13:07:44;;;;;;;24.08;13.00;;;;;;;;;;5089821;28;20431;-64
2024/01/12 13:10:09;;;;;;;23.17;12.20;;;;;;;;;;5090429;28;20020;-64
2024/01/12 13:12:35;;;;;;;21.58;11.57;;;;;;;;;;5090531;28;20024;-64
2024/01/12 13:15:00;;;;;;;28.73;13.77;;;;;;;;;;5090246;28;20047;-64
2024/01/12 13:17:26;;;;;;;26.92;13.60;;;;;;;;;;5087395;28;20075;-64
2024/01/12 13:19:51;;;;;;;25.17;13.57;;;;;;;;;;5090538;28;20034;-64
2024/01/12 13:22:17;;;;;;;28.77;13.57;;;;;;;;;;5088827;28;20036;-64
2024/01/12 13:24:43;;;;;;;20.60;11.30;;;;;;;;;;5090064;28;20032;-64
2024/01/12 13:27:08;;;;;;;27.85;13.52;;;;;;;;;;5090256;28;20032;-65
2024/01/12 13:29:34;;;;;;;23.70;13.30;;;;;;;;;;5087025;28;20016;-65
2024/01/12 13:31:59;;;;;;;24.55;14.15;;;;;;;;;;5090451;28;20107;-65
2024/01/12 13:34:24;;;;;;;24.30;12.70;;;;;;;;;;5089911;28;20382;-65
2024/01/12 13:36:50;;;;;;;30.55;12.57;;;;;;;;;;5090722;28;20036;-65
2024/01/12 13:39:15;;;;;;;25.63;13.07;;;;;;;;;;5090207;28;20162;-65
2024/01/12 13:41:40;;;;;;;18.92;11.93;;;;;;;;;;5089721;28;20061;-65
2024/01/12 13:44:05;;;;;;;27.75;13.65;;;;;;;;;;5090063;28;20517;-68
2024/01/12 13:46:31;;;;;;;22.88;13.18;;;;;;;;;;5089990;28;20119;-65
2024/01/12 13:48:56;;;;;;;25.98;13.52;;;;;;;;;;5093000;28;20030;-65
2024/01/12 13:51:21;;;;;;;25.77;13.10;;;;;;;;;;5092836;28;20024;-65
2024/01/12 13:53:47;;;;;;;22.70;13.90;;;;;;;;;;5093630;28;20030;-65
2024/01/12 13:56:12;;;;;;;28.08;13.55;;;;;;;;;;5092842;28;20028;-65
2024/01/12 13:58:38;;;;;;;26.48;13.65;;;;;;;;;;5093566;28;20024;-65
2024/01/12 14:01:03;;;;;;;24.58;13.98;;;;;;;;;;5093766;28;20394;-65
2024/01/12 14:03:29;;;;;;;27.73;15.18;;;;;;;;;;5093942;28;20106;-65
2024/01/12 14:05:54;;;;;;;30.83;14.23;;;;;;;;;;5091991;28;20032;-65